HE37 weather

Bilbeis Air Base
Bilbeis, Sharqia Governorate, Egypt

Public forecast

Using degrees Celsius for public forecast. Weather courtesy of forecast.io.

Closest aviation weather report (METAR) to Bilbeis Air Base

Closest report is Cairo International Airport, 19.3 nm (35.7 km) SSW. Retrieved 2019/11/21 20:00 UTC (49 minutes ago):

HECA 212000Z 05002KT 3000 HZ NSC 18/03 Q1016

Closest aviation forecast (TAF) to Bilbeis Air Base

Closest forecast is Cairo International Airport, 19.3 nm (35.7 km) SSW. Retrieved 2019/11/21 18:46 UTC (2 hours ago):

TAF HECA 211700Z 2118/2224 VRB03KT 6000 FEW025 TEMPO 2118/2212 4000 HZ PROB40 2118/2210 2000 PROB40 TEMPO 2122/2208 1000